createdAt,value
2023-06-01T00:00:59.372Z,14.80
2023-06-01T00:06:17.439Z,14.70
2023-06-01T00:11:19.314Z,14.62
2023-06-01T00:16:23.520Z,14.50
2023-06-01T00:21:25.738Z,14.40
2023-06-01T00:26:28.137Z,14.30
2023-06-01T00:31:30.072Z,14.20
2023-06-01T00:36:32.702Z,14.00
2023-06-01T00:41:34.705Z,13.90
2023-06-01T00:46:38.222Z,13.86
2023-06-01T00:51:41.597Z,13.72
2023-06-01T00:56:43.828Z,13.60
2023-06-01T01:01:45.797Z,13.50
2023-06-01T01:07:12.940Z,13.40
2023-06-01T01:12:37.450Z,13.30
2023-06-01T01:17:47.007Z,13.10
2023-06-01T01:23:32.120Z,13.00
2023-06-01T01:28:41.038Z,12.82
2023-06-01T01:33:46.221Z,12.72
2023-06-01T01:38:48.167Z,12.60
2023-06-01T01:43:51.283Z,12.50
2023-06-01T01:49:04.178Z,12.40
2023-06-01T01:54:08.538Z,12.40
2023-06-01T01:59:11.156Z,12.30
2023-06-01T02:04:13.047Z,12.20
2023-06-01T02:09:14.913Z,12.12
2023-06-01T02:14:16.779Z,12.10
2023-06-01T02:19:18.658Z,12.10
2023-06-01T02:24:20.536Z,12.08
2023-06-01T02:29:25.496Z,12.00
2023-06-01T02:34:27.286Z,11.90
2023-06-01T02:39:29.137Z,11.88
2023-06-01T02:44:30.917Z,11.80
2023-06-01T02:49:32.723Z,11.80
2023-06-01T02:54:34.571Z,11.70
2023-06-01T02:59:36.439Z,11.70
2023-06-01T03:04:38.784Z,11.70
2023-06-01T03:09:40.912Z,11.70
2023-06-01T03:14:43.001Z,11.70
2023-06-01T03:19:44.876Z,11.70
2023-06-01T03:24:50.141Z,11.82
2023-06-01T03:29:52.315Z,12.00
2023-06-01T03:34:54.207Z,12.20
2023-06-01T03:39:56.302Z,12.30
2023-06-01T03:44:58.255Z,12.40
2023-06-01T03:50:02.006Z,12.50
2023-06-01T03:55:11.094Z,12.60
2023-06-01T04:00:19.399Z,12.70
2023-06-01T04:05:26.350Z,13.00
2023-06-01T04:10:28.236Z,13.20
2023-06-01T04:15:29.958Z,13.46
2023-06-01T04:20:33.106Z,13.60
2023-06-01T04:25:35.201Z,13.80
2023-06-01T04:30:37.794Z,14.08
2023-06-01T04:35:39.705Z,14.22
2023-06-01T04:40:42.660Z,14.48
2023-06-01T04:45:44.579Z,14.70
2023-06-01T04:50:47.338Z,14.96
2023-06-01T04:55:49.394Z,15.10
2023-06-01T05:00:52.021Z,15.20
2023-06-01T05:05:53.905Z,15.30
2023-06-01T05:10:55.882Z,15.50
2023-06-01T05:15:57.895Z,15.68
2023-06-01T05:21:03.564Z,15.80
2023-06-01T05:26:06.644Z,16.00
2023-06-01T05:31:08.741Z,16.20
2023-06-01T05:36:10.904Z,16.30
2023-06-01T05:41:12.709Z,16.40
2023-06-01T05:46:14.603Z,16.54
2023-06-01T05:51:16.742Z,16.70
2023-06-01T05:56:18.806Z,16.88
2023-06-01T06:01:21.309Z,17.00
2023-06-01T06:06:24.905Z,17.12
2023-06-01T06:11:27.505Z,17.30
2023-06-01T06:16:29.405Z,17.40
2023-06-01T06:21:32.138Z,17.60
2023-06-01T06:26:34.102Z,17.80
2023-06-01T06:31:35.968Z,17.98
2023-06-01T06:36:38.265Z,18.20
2023-06-01T06:41:43.511Z,18.30
2023-06-01T06:46:45.748Z,18.50
2023-06-01T06:51:47.872Z,18.70
2023-06-01T06:56:49.843Z,18.82
2023-06-01T07:01:51.710Z,19.10
2023-06-01T07:06:54.116Z,19.20
2023-06-01T07:11:55.989Z,19.30
2023-06-01T07:16:58.018Z,19.48
2023-06-01T07:22:01.968Z,19.60
2023-06-01T07:27:06.358Z,19.80
2023-06-01T07:32:09.675Z,20.10
2023-06-01T07:37:17.636Z,20.30
2023-06-01T07:42:21.379Z,20.50
2023-06-01T07:47:25.863Z,20.60
2023-06-01T07:52:28.020Z,20.60
2023-06-01T07:57:29.881Z,20.70
2023-06-01T08:02:32.023Z,20.80
2023-06-01T08:07:34.458Z,20.96
2023-06-01T08:12:37.050Z,21.12
2023-06-01T08:17:39.344Z,21.20
2023-06-01T08:22:42.243Z,21.30
2023-06-01T08:27:44.875Z,21.40
2023-06-01T08:32:46.967Z,21.60
2023-06-01T08:37:49.023Z,21.80
2023-06-01T08:43:06.852Z,21.80
2023-06-01T08:48:14.618Z,21.90
2023-06-01T08:53:22.025Z,22.10
2023-06-01T08:58:26.339Z,22.24
2023-06-01T09:03:28.283Z,22.56
2023-06-01T09:08:30.719Z,22.70
2023-06-01T09:13:38.454Z,22.70
2023-06-01T09:18:55.944Z,22.80
2023-06-01T09:24:22.964Z,22.90
2023-06-01T09:29:24.789Z,23.08
2023-06-01T09:34:26.885Z,23.20
2023-06-01T09:39:35.161Z,23.20
2023-06-01T09:44:43.121Z,23.30
2023-06-01T09:49:45.822Z,23.40
2023-06-01T09:54:55.468Z,23.70
2023-06-01T09:59:58.388Z,23.70
2023-06-01T10:05:01.621Z,23.70
2023-06-01T10:10:04.687Z,23.90
2023-06-01T10:15:20.527Z,24.08
2023-06-01T10:20:39.749Z,24.20
2023-06-01T10:25:47.521Z,24.30
2023-06-01T10:31:36.226Z,24.70
2023-06-01T10:36:53.882Z,24.90
2023-06-01T10:41:58.894Z,24.40
2023-06-01T10:47:01.112Z,24.50
2023-06-01T10:52:28.440Z,24.64
2023-06-01T10:57:30.609Z,24.90
2023-06-01T11:02:33.859Z,24.90
2023-06-01T11:07:39.408Z,24.86
2023-06-01T11:13:18.570Z,25.28
2023-06-01T11:18:42.152Z,25.42
2023-06-01T11:23:48.922Z,25.50
2023-06-01T11:28:53.597Z,26.08
2023-06-01T11:33:57.902Z,26.70
2023-06-01T11:39:06.376Z,26.60
2023-06-01T11:44:19.100Z,26.38
2023-06-01T11:49:22.161Z,26.60
2023-06-01T11:54:27.066Z,26.80
2023-06-01T11:59:41.286Z,26.90
2023-06-01T12:04:43.987Z,27.10
2023-06-01T12:09:46.375Z,27.50
2023-06-01T12:14:50.787Z,27.90
2023-06-01T12:19:53.303Z,27.80
2023-06-01T12:24:55.277Z,27.48
2023-06-01T12:29:59.043Z,27.20
2023-06-01T12:35:08.176Z,27.24
2023-06-01T12:40:11.836Z,28.04
2023-06-01T12:45:13.849Z,28.50
2023-06-01T12:50:16.367Z,28.16
2023-06-01T12:55:19.231Z,27.70
2023-06-01T13:00:26.914Z,28.26
2023-06-01T13:05:29.641Z,28.60
2023-06-01T13:10:32.237Z,28.70
2023-06-01T13:15:35.683Z,28.40
2023-06-01T13:20:39.964Z,28.60
2023-06-01T13:25:41.869Z,28.80
2023-06-01T13:30:44.256Z,28.20
2023-06-01T13:35:47.258Z,27.86
2023-06-01T13:40:49.262Z,28.50
2023-06-01T13:45:51.549Z,29.10
2023-06-01T13:50:53.710Z,29.30
2023-06-01T13:55:55.823Z,29.00
2023-06-01T14:00:57.616Z,28.20
2023-06-01T14:05:59.445Z,27.40
2023-06-01T14:11:01.988Z,27.10
2023-06-01T14:16:04.516Z,27.00
2023-06-01T14:21:06.728Z,26.70
2023-06-01T14:26:08.704Z,26.90
2023-06-01T14:31:10.522Z,27.06
2023-06-01T14:36:12.567Z,26.90
2023-06-01T14:41:14.647Z,26.90
2023-06-01T14:46:16.637Z,26.60
2023-06-01T14:51:18.713Z,26.30
2023-06-01T14:56:22.948Z,26.60
2023-06-01T15:01:25.202Z,26.42
2023-06-01T15:06:27.348Z,27.10
2023-06-01T15:11:29.698Z,27.62
2023-06-01T15:16:32.123Z,28.10
2023-06-01T15:21:34.438Z,28.20
2023-06-01T15:26:36.597Z,28.20
2023-06-01T15:31:38.885Z,27.60
2023-06-01T15:36:40.920Z,27.20
2023-06-01T15:41:43.125Z,27.06
2023-06-01T15:46:46.600Z,26.60
2023-06-01T15:51:48.510Z,26.40
2023-06-01T15:56:50.478Z,25.70
2023-06-01T16:01:53.834Z,25.10
2023-06-01T16:06:57.204Z,24.70
2023-06-01T16:11:59.101Z,24.80
2023-06-01T16:17:01.448Z,24.46
2023-06-01T16:22:04.812Z,24.20
2023-06-01T16:27:08.348Z,24.30
2023-06-01T16:32:10.561Z,24.20
2023-06-01T16:37:12.780Z,23.90
2023-06-01T16:42:14.864Z,23.60
2023-06-01T16:47:16.773Z,23.70
2023-06-01T16:52:18.717Z,23.60
2023-06-01T16:57:22.076Z,23.30
2023-06-01T17:02:24.140Z,23.20
2023-06-01T17:07:26.120Z,23.20
2023-06-01T17:12:27.967Z,23.00
2023-06-01T17:17:30.049Z,22.70
2023-06-01T17:22:32.328Z,21.90
2023-06-01T17:27:34.287Z,21.32
2023-06-01T17:32:36.798Z,20.98
2023-06-01T17:37:39.030Z,20.90
2023-06-01T17:42:41.080Z,20.70
2023-06-01T17:47:43.074Z,20.40
2023-06-01T17:52:45.168Z,20.20
2023-06-01T17:57:47.324Z,19.90
2023-06-01T18:02:50.357Z,19.42
2023-06-01T18:07:53.124Z,19.20
2023-06-01T18:12:55.217Z,18.90
2023-06-01T18:17:57.128Z,18.50
2023-06-01T18:22:59.168Z,18.20
2023-06-01T18:28:00.981Z,18.10
2023-06-01T18:33:03.245Z,17.90
2023-06-01T18:38:05.152Z,17.80
2023-06-01T18:43:11.588Z,17.70
2023-06-01T18:48:13.823Z,17.62
2023-06-01T18:53:16.370Z,17.52
2023-06-01T18:58:18.156Z,17.40
2023-06-01T19:03:20.250Z,17.30
2023-06-01T19:08:22.610Z,17.04
2023-06-01T19:13:37.297Z,16.80
2023-06-01T19:18:39.861Z,16.60
2023-06-01T19:23:54.129Z,16.60
2023-06-01T19:29:06.372Z,16.60
2023-06-01T19:34:10.562Z,16.44
2023-06-01T19:39:27.171Z,16.40
2023-06-01T19:44:31.509Z,16.40
2023-06-01T19:49:40.918Z,16.20
2023-06-01T19:54:43.745Z,16.20
2023-06-01T19:59:45.719Z,16.20
2023-06-01T20:04:47.892Z,16.20
2023-06-01T20:09:50.616Z,16.20
2023-06-01T20:14:52.876Z,16.00
2023-06-01T20:19:55.277Z,15.90
2023-06-01T20:24:57.141Z,15.80
2023-06-01T20:30:03.408Z,15.80
2023-06-01T20:35:09.705Z,15.80
2023-06-01T20:40:42.711Z,15.60
2023-06-01T20:46:04.141Z,15.60
2023-06-01T20:51:36.952Z,15.44
2023-06-01T20:56:57.369Z,15.40
2023-06-01T21:02:08.765Z,15.30
2023-06-01T21:07:10.646Z,15.20
2023-06-01T21:12:12.436Z,15.10
2023-06-01T21:17:14.911Z,15.10
2023-06-01T21:22:17.098Z,15.00
2023-06-01T21:27:18.975Z,14.94
2023-06-01T21:32:21.046Z,15.00
2023-06-01T21:37:22.920Z,15.00
2023-06-01T21:42:24.826Z,14.96
2023-06-01T21:47:26.595Z,14.90
2023-06-01T21:52:28.568Z,14.80
2023-06-01T21:57:30.651Z,14.80
2023-06-01T22:02:32.544Z,14.80
2023-06-01T22:07:34.531Z,14.80
2023-06-01T22:12:36.518Z,14.62
2023-06-01T22:17:39.325Z,14.50
2023-06-01T22:22:41.209Z,14.50
2023-06-01T22:27:43.748Z,14.44
2023-06-01T22:32:45.998Z,14.30
2023-06-01T22:37:47.904Z,14.30
2023-06-01T22:42:51.479Z,14.30
2023-06-01T22:47:54.952Z,14.20
2023-06-01T22:52:56.823Z,14.20
2023-06-01T22:57:58.613Z,14.20
2023-06-01T23:03:00.608Z,14.12
2023-06-01T23:08:11.895Z,14.10
2023-06-01T23:13:15.189Z,14.00
2023-06-01T23:18:17.498Z,14.00
2023-06-01T23:23:19.586Z,14.02
2023-06-01T23:28:21.457Z,14.00
2023-06-01T23:33:23.653Z,14.00
2023-06-01T23:38:25.848Z,13.92
2023-06-01T23:43:27.683Z,14.00
2023-06-01T23:48:29.478Z,13.90
2023-06-01T23:53:31.332Z,13.90
2023-06-01T23:58:33.726Z,13.80
